Time;durP1;ratioP1;P1;durP2;ratioP2;P2;SDS_P1;SDS_P2;PMS_P1;PMS_P2;Temp;Humidity;BMP_temperature;BMP_pressure;BME280_temperature;BME280_humidity;BME280_pressure;Samples;Min_cycle;Max_cycle;Signal;HPM_P1;HPM_P2
2022/02/28 00:01:03;;;;;;;8.82;3.78;;;6.40;54.00;;;;;;4992425;28;20464;-71
2022/02/28 00:03:31;;;;;;;14.05;5.07;;;6.50;53.90;;;;;;4990513;28;20747;-71
2022/02/28 00:05:59;;;;;;;10.02;4.43;;;6.50;53.80;;;;;;4991853;28;20042;-71
2022/02/28 00:08:28;;;;;;;9.57;3.95;;;6.60;53.80;;;;;;4993047;28;20132;-71
2022/02/28 00:10:55;;;;;;;10.57;4.80;;;6.50;53.90;;;;;;4988244;28;20112;-71
2022/02/28 00:13:22;;;;;;;9.18;3.55;;;6.50;53.90;;;;;;4991654;28;20752;-71
2022/02/28 00:15:49;;;;;;;8.68;4.18;;;6.50;54.30;;;;;;4992205;28;20041;-71
2022/02/28 00:18:16;;;;;;;9.73;3.78;;;6.50;54.40;;;;;;4994070;28;20046;-71
2022/02/28 00:20:43;;;;;;;9.68;3.53;;;6.70;54.20;;;;;;4987649;28;20061;-71
2022/02/28 00:23:11;;;;;;;11.60;4.13;;;6.80;53.70;;;;;;4990047;28;20117;-70
2022/02/28 00:25:38;;;;;;;10.98;4.22;;;6.70;53.80;;;;;;4974134;28;20046;-71
2022/02/28 00:28:06;;;;;;;11.13;4.10;;;6.50;54.50;;;;;;4990727;28;20069;-71
2022/02/28 00:30:35;;;;;;;11.52;4.95;;;6.60;54.30;;;;;;4988960;28;20501;-71
2022/02/28 00:33:03;;;;;;;13.00;3.88;;;6.70;54.10;;;;;;4991569;28;20965;-71
2022/02/28 00:35:34;;;;;;;9.20;4.35;;;6.50;54.60;;;;;;4991570;28;20133;-71
2022/02/28 00:38:01;;;;;;;7.95;3.60;;;6.50;55.00;;;;;;4990449;28;20046;-71
2022/02/28 00:40:28;;;;;;;8.13;3.50;;;6.50;55.00;;;;;;4990749;28;20441;-71
2022/02/28 00:42:55;;;;;;;11.75;4.28;;;6.50;55.10;;;;;;4991103;28;20050;-71
2022/02/28 00:45:22;;;;;;;11.35;3.60;;;6.60;54.80;;;;;;4990040;28;20057;-71
2022/02/28 00:47:49;;;;;;;9.75;3.67;;;6.70;54.50;;;;;;4990963;28;20108;-71
2022/02/28 00:50:16;;;;;;;10.43;4.28;;;6.60;54.90;;;;;;5006434;28;20057;-70
2022/02/28 00:52:43;;;;;;;9.20;3.55;;;6.50;55.10;;;;;;4990461;28;20057;-71
2022/02/28 00:55:12;;;;;;;16.17;4.53;;;6.60;55.10;;;;;;4976360;28;20501;-71
2022/02/28 00:57:41;;;;;;;14.50;4.63;;;6.70;54.80;;;;;;4989704;28;20049;-71
2022/02/28 01:00:12;;;;;;;12.27;4.32;;;6.60;55.10;;;;;;4992550;28;20129;-70
2022/02/28 01:02:40;;;;;;;11.73;4.40;;;6.80;54.90;;;;;;4992958;28;20497;-71
2022/02/28 01:05:10;;;;;;;12.73;5.20;;;6.80;54.70;;;;;;4990862;28;20140;-71
2022/02/28 01:07:37;;;;;;;11.85;4.45;;;6.70;54.80;;;;;;5006767;28;20100;-71
2022/02/28 01:10:07;;;;;;;13.90;3.90;;;6.70;54.90;;;;;;4990978;28;20049;-70
2022/02/28 01:12:34;;;;;;;12.32;4.43;;;6.50;55.20;;;;;;4991318;28;20126;-71
2022/02/28 01:15:02;;;;;;;12.02;3.80;;;6.30;55.90;;;;;;4996927;28;20057;-70
2022/02/28 01:17:29;;;;;;;11.73;3.72;;;6.30;55.80;;;;;;4992347;28;20762;-71
2022/02/28 01:19:58;;;;;;;10.48;4.28;;;6.30;56.20;;;;;;4993706;28;20109;-70
2022/02/28 01:22:26;;;;;;;10.77;4.25;;;6.40;55.60;;;;;;4991941;28;20045;-71
2022/02/28 01:24:53;;;;;;;11.50;4.10;;;6.60;55.30;;;;;;4990576;28;20105;-71
2022/02/28 01:27:22;;;;;;;13.52;4.30;;;6.60;55.30;;;;;;4990727;28;20486;-71
2022/02/28 01:29:51;;;;;;;10.55;3.83;;;6.50;55.30;;;;;;4989386;28;20716;-71
2022/02/28 01:32:18;;;;;;;9.82;3.67;;;6.50;55.50;;;;;;5005747;28;20061;-71
2022/02/28 01:34:45;;;;;;;7.22;3.50;;;6.40;55.60;;;;;;4994432;28;20049;-71
2022/02/28 01:37:12;;;;;;;12.63;4.00;;;6.40;55.50;;;;;;4974450;28;20049;-71
2022/02/28 01:39:44;;;;;;;8.10;3.45;;;6.30;55.90;;;;;;4990658;28;20272;-71
2022/02/28 01:42:12;;;;;;;10.98;4.50;;;6.30;56.10;;;;;;4975973;28;20176;-71
2022/02/28 01:44:40;;;;;;;8.38;3.67;;;6.40;55.90;;;;;;5006101;28;20104;-71
2022/02/28 01:47:10;;;;;;;8.27;3.17;;;6.50;55.80;;;;;;4991057;28;20116;-71
2022/02/28 01:49:37;;;;;;;9.77;3.95;;;6.50;55.90;;;;;;4988838;28;20046;-71
2022/02/28 01:52:05;;;;;;;7.25;3.45;;;6.60;55.60;;;;;;4989146;28;20052;-70
2022/02/28 01:54:32;;;;;;;8.82;3.65;;;6.40;55.80;;;;;;4990408;28;20462;-71
2022/02/28 01:56:59;;;;;;;12.05;4.03;;;6.40;55.90;;;;;;4990917;28;20076;-71
2022/02/28 01:59:27;;;;;;;10.05;3.65;;;6.20;56.50;;;;;;4973446;28;20061;-71
2022/02/28 02:01:54;;;;;;;10.05;3.30;;;6.10;56.90;;;;;;4988386;28;20050;-71
2022/02/28 02:04:22;;;;;;;10.18;3.85;;;6.30;56.50;;;;;;4973265;28;20050;-71
2022/02/28 02:06:49;;;;;;;9.05;4.35;;;6.60;55.90;;;;;;5003990;28;21729;-71
2022/02/28 02:09:17;;;;;;;8.23;3.40;;;6.60;55.80;;;;;;4992617;28;20100;-71
2022/02/28 02:11:45;;;;;;;10.40;3.75;;;6.50;56.10;;;;;;4989977;28;20073;-71
2022/02/28 02:14:12;;;;;;;6.20;3.53;;;6.50;56.20;;;;;;4990117;28;20065;-71
2022/02/28 02:16:40;;;;;;;10.80;3.83;;;6.50;55.90;;;;;;4988465;28;20041;-71
2022/02/28 02:19:09;;;;;;;9.20;3.42;;;6.40;56.50;;;;;;4988478;28;20054;-71
2022/02/28 02:21:37;;;;;;;9.20;3.58;;;6.40;56.60;;;;;;5004710;28;20057;-71
2022/02/28 02:24:04;;;;;;;10.90;3.42;;;6.30;56.90;;;;;;4991287;28;20540;-71
2022/02/28 02:26:31;;;;;;;6.85;3.10;;;6.30;57.10;;;;;;5004321;28;20038;-71
2022/02/28 02:28:58;;;;;;;8.07;3.20;;;6.30;57.20;;;;;;4973649;28;20050;-71
2022/02/28 02:31:25;;;;;;;9.02;3.90;;;6.20;57.00;;;;;;4988716;28;20046;-71
2022/02/28 02:33:54;;;;;;;11.30;3.47;;;6.40;57.00;;;;;;4987258;28;20497;-71
2022/02/28 02:36:22;;;;;;;9.07;3.33;;;6.30;57.00;;;;;;4990010;28;20117;-70
2022/02/28 02:38:51;;;;;;;7.47;2.97;;;6.30;56.80;;;;;;5003640;28;20053;-71
2022/02/28 02:41:19;;;;;;;8.95;3.13;;;6.50;56.10;;;;;;5004763;28;20520;-71
2022/02/28 02:43:46;;;;;;;10.50;3.58;;;6.40;56.00;;;;;;4989770;28;20049;-70
2022/02/28 02:46:14;;;;;;;8.55;3.08;;;6.50;55.50;;;;;;5008899;28;20851;-71
2022/02/28 02:48:42;;;;;;;8.50;3.45;;;6.60;55.30;;;;;;4992291;28;20076;-70
2022/02/28 02:51:16;;;;;;;8.18;3.22;;;6.40;55.20;;;;;;5009436;28;20094;-70
2022/02/28 02:53:45;;;;;;;6.65;2.83;;;6.50;55.30;;;;;;4992860;28;22948;-70
2022/02/28 02:56:14;;;;;;;7.50;3.17;;;6.50;55.00;;;;;;4994958;28;20038;-71
2022/02/28 02:58:42;;;;;;;7.75;2.70;;;6.50;55.20;;;;;;4991918;28;20038;-71
2022/02/28 03:01:09;;;;;;;5.47;2.20;;;6.50;55.20;;;;;;5008061;28;20088;-71
2022/02/28 03:03:36;;;;;;;7.38;3.00;;;6.60;55.20;;;;;;4993891;28;20046;-70
2022/02/28 03:06:04;;;;;;;11.25;3.22;;;6.40;55.10;;;;;;4990710;28;20053;-71
2022/02/28 03:08:36;;;;;;;10.23;2.40;;;6.40;55.40;;;;;;5008812;28;20046;-71
2022/02/28 03:11:03;;;;;;;7.47;2.55;;;6.30;55.50;;;;;;4992989;28;20042;-71
2022/02/28 03:13:30;;;;;;;8.65;3.10;;;6.40;55.50;;;;;;5010323;28;20088;-71
2022/02/28 03:15:57;;;;;;;8.98;3.35;;;6.40;55.40;;;;;;4991421;28;20053;-70
2022/02/28 03:18:25;;;;;;;6.90;2.50;;;6.50;55.30;;;;;;4990033;28;20468;-71
2022/02/28 03:20:52;;;;;;;5.57;2.65;;;6.30;55.50;;;;;;4994970;28;20046;-70
2022/02/28 03:23:19;;;;;;;8.98;2.65;;;6.20;55.60;;;;;;4991192;28;20496;-71
2022/02/28 03:25:56;;;;;;;7.88;3.80;;;6.40;55.50;;;;;;4992858;28;20505;-71
2022/02/28 03:28:23;;;;;;;7.38;2.67;;;6.20;55.70;;;;;;4991796;28;20133;-71
2022/02/28 03:30:51;;;;;;;9.38;2.70;;;6.10;56.30;;;;;;4991770;28;20460;-71
2022/02/28 03:33:19;;;;;;;6.70;3.00;;;6.10;56.20;;;;;;5010536;28;20031;-71
2022/02/28 03:35:46;;;;;;;9.80;3.08;;;6.20;55.80;;;;;;4987448;28;20046;-71
2022/02/28 03:38:13;;;;;;;9.85;3.10;;;6.30;55.60;;;;;;5008017;28;20124;-71
2022/02/28 03:40:40;;;;;;;7.80;2.65;;;6.20;55.70;;;;;;4992554;28;20057;-71
2022/02/28 03:43:07;;;;;;;5.95;2.38;;;6.20;55.60;;;;;;4990740;28;20050;-71
2022/02/28 03:45:58;;;;;;;7.05;2.83;;;6.30;55.60;;;;;;5008751;28;21070;-71
2022/02/28 03:48:32;;;;;;;7.05;2.80;;;6.30;55.40;;;;;;5001934;28;20118;-71
2022/02/28 03:51:14;;;;;;;10.63;2.87;;;6.30;55.80;;;;;;4992949;28;20409;-71
2022/02/28 03:53:42;;;;;;;7.88;2.92;;;6.20;55.60;;;;;;5008004;28;20046;-70
2022/02/28 03:56:09;;;;;;;7.90;2.50;;;6.20;55.70;;;;;;4991788;28;20042;-71
2022/02/28 03:58:38;;;;;;;7.55;2.35;;;6.10;55.70;;;;;;4974933;28;20073;-71
2022/02/28 04:01:07;;;;;;;6.55;2.97;;;6.00;56.00;;;;;;4994104;28;20093;-71
2022/02/28 04:03:40;;;;;;;6.47;2.78;;;5.90;56.40;;;;;;4992728;28;20421;-71
2022/02/28 04:06:08;;;;;;;9.68;2.60;;;5.80;56.80;;;;;;4989267;28;20046;-71
2022/02/28 04:08:38;;;;;;;9.25;2.97;;;5.90;56.50;;;;;;5009615;28;20160;-71
2022/02/28 04:11:05;;;;;;;7.18;2.70;;;5.70;56.90;;;;;;4991329;28;20053;-71
2022/02/28 04:13:32;;;;;;;7.38;1.98;;;5.90;56.60;;;;;;5009356;28;20050;-71
2022/02/28 04:15:59;;;;;;;7.22;2.40;;;5.90;56.70;;;;;;4993570;28;20041;-71
2022/02/28 04:18:26;;;;;;;7.22;2.90;;;6.10;56.40;;;;;;4990340;28;20073;-71
2022/02/28 04:21:19;;;;;;;6.00;2.45;;;6.20;56.00;;;;;;4982011;28;20077;-70
2022/02/28 04:23:48;;;;;;;7.28;2.92;;;6.00;56.20;;;;;;4990558;28;20035;-71
2022/02/28 04:26:15;;;;;;;6.82;2.67;;;6.10;56.20;;;;;;4978693;28;20038;-71
2022/02/28 04:28:43;;;;;;;7.13;3.10;;;6.00;56.30;;;;;;4990270;28;20612;-70
2022/02/28 04:31:10;;;;;;;7.55;2.85;;;6.10;56.50;;;;;;4975148;28;20049;-71
2022/02/28 04:33:38;;;;;;;7.43;2.63;;;6.00;56.60;;;;;;4990855;28;20042;-70
2022/02/28 04:36:06;;;;;;;7.15;2.60;;;6.10;56.30;;;;;;5008477;28;20100;-70
2022/02/28 04:38:33;;;;;;;8.52;2.63;;;6.10;56.40;;;;;;4988414;28;20053;-71
2022/02/28 04:41:00;;;;;;;6.20;3.30;;;5.90;56.50;;;;;;4994825;28;20054;-71
2022/02/28 04:43:28;;;;;;;10.25;3.28;;;6.00;56.60;;;;;;4988364;28;20042;-71
2022/02/28 04:45:55;;;;;;;5.57;1.95;;;5.80;57.10;;;;;;4988755;28;20077;-71
2022/02/28 04:48:22;;;;;;;6.47;2.75;;;5.80;57.20;;;;;;4992514;28;20145;-71
2022/02/28 04:51:19;;;;;;;6.72;3.20;;;5.90;57.10;;;;;;4977286;28;20049;-72
2022/02/28 04:53:46;;;;;;;5.40;2.63;;;5.70;57.50;;;;;;4975229;28;20049;-70
2022/02/28 04:56:14;;;;;;;6.00;2.08;;;5.60;57.90;;;;;;5007632;28;20053;-71
2022/02/28 04:58:42;;;;;;;6.68;2.67;;;5.70;57.80;;;;;;4991282;28;20042;-71
2022/02/28 05:01:09;;;;;;;7.70;2.28;;;5.70;58.30;;;;;;4992101;28;20046;-71
2022/02/28 05:03:39;;;;;;;10.52;3.33;;;5.60;58.40;;;;;;5005894;28;20100;-71
2022/02/28 05:06:06;;;;;;;6.10;2.35;;;5.70;58.20;;;;;;4990454;28;20510;-71
2022/02/28 05:08:35;;;;;;;6.35;2.53;;;5.80;58.10;;;;;;5003847;28;20556;-70
2022/02/28 05:11:03;;;;;;;7.43;2.40;;;5.90;58.30;;;;;;4992047;28;20727;-71
2022/02/28 05:13:31;;;;;;;7.65;2.50;;;6.00;57.80;;;;;;5006392;28;20394;-70
2022/02/28 05:16:00;;;;;;;7.25;2.60;;;6.00;57.50;;;;;;4975026;28;20128;-71
2022/02/28 05:18:27;;;;;;;7.82;2.78;;;6.10;57.60;;;;;;4990770;28;20081;-71
2022/02/28 05:20:54;;;;;;;7.28;2.58;;;6.00;57.80;;;;;;4990548;28;20104;-71
2022/02/28 05:23:21;;;;;;;8.63;2.45;;;5.80;58.10;;;;;;4989907;28;22706;-71
2022/02/28 05:25:50;;;;;;;8.27;2.65;;;5.90;58.20;;;;;;4988655;28;20169;-71
2022/02/28 05:28:37;;;;;;;9.00;3.28;;;5.90;58.40;;;;;;5005352;28;20125;-71
2022/02/28 05:31:04;;;;;;;9.10;2.67;;;5.80;58.50;;;;;;4990104;28;20050;-70
2022/02/28 05:33:31;;;;;;;6.38;3.03;;;5.60;59.20;;;;;;4970715;28;20058;-70
2022/02/28 05:36:00;;;;;;;8.07;2.50;;;5.80;59.20;;;;;;4989317;28;20057;-71
2022/02/28 05:38:34;;;;;;;8.65;2.58;;;5.70;58.90;;;;;;4976099;28;20046;-71
2022/02/28 05:41:05;;;;;;;6.45;2.80;;;5.80;59.10;;;;;;5006219;28;20491;-71
2022/02/28 05:43:37;;;;;;;7.85;2.63;;;6.00;59.00;;;;;;4989065;28;20097;-71
2022/02/28 05:46:05;;;;;;;6.80;2.25;;;6.10;58.30;;;;;;5006934;28;20188;-71
2022/02/28 05:48:40;;;;;;;9.15;3.25;;;5.70;58.70;;;;;;4988076;28;20053;-70
2022/02/28 05:51:10;;;;;;;10.13;2.95;;;5.80;59.00;;;;;;5002981;28;20078;-71
2022/02/28 05:53:37;;;;;;;7.78;2.70;;;5.80;58.90;;;;;;4988660;28;20104;-71
2022/02/28 05:56:05;;;;;;;11.40;3.22;;;5.90;59.00;;;;;;4990209;28;20148;-71
2022/02/28 05:58:32;;;;;;;9.75;2.97;;;5.70;59.00;;;;;;4990291;28;20046;-71
2022/02/28 06:00:59;;;;;;;8.50;2.63;;;5.70;59.40;;;;;;4991753;28;20062;-71
2022/02/28 06:03:26;;;;;;;7.13;2.47;;;5.70;59.30;;;;;;4991343;28;20131;-71
2022/02/28 06:05:53;;;;;;;7.70;2.45;;;5.80;58.20;;;;;;4987893;28;20045;-71
2022/02/28 06:08:20;;;;;;;5.55;2.10;;;5.80;57.50;;;;;;4992484;28;20790;-71
2022/02/28 06:10:47;;;;;;;5.13;1.85;;;5.70;56.50;;;;;;4991386;28;20050;-70
2022/02/28 06:13:15;;;;;;;5.95;1.67;;;5.90;55.90;;;;;;4991034;28;20088;-71
2022/02/28 06:15:42;;;;;;;5.15;1.38;;;5.90;55.10;;;;;;4991444;28;20235;-71
2022/02/28 06:18:11;;;;;;;5.15;0.95;;;5.80;53.50;;;;;;4993083;28;20049;-71
2022/02/28 06:20:40;;;;;;;4.85;1.38;;;5.90;53.80;;;;;;4992493;28;20042;-71
2022/02/28 06:23:14;;;;;;;3.70;1.00;;;5.90;53.40;;;;;;4995570;28;20532;-70
2022/02/28 06:25:42;;;;;;;2.60;0.70;;;5.80;52.90;;;;;;4993140;28;20054;-70
2022/02/28 06:28:11;;;;;;;3.38;0.85;;;6.00;51.50;;;;;;4993829;28;20517;-70
2022/02/28 06:30:40;;;;;;;3.35;0.75;;;6.10;51.00;;;;;;4994820;28;20055;-71
2022/02/28 06:33:07;;;;;;;2.88;0.75;;;6.10;51.30;;;;;;4994782;28;20053;-71
2022/02/28 06:35:35;;;;;;;5.32;1.33;;;6.00;51.80;;;;;;4995793;28;20053;-71
2022/02/28 06:38:02;;;;;;;5.60;1.58;;;5.90;52.80;;;;;;4994353;28;20600;-71
2022/02/28 06:40:29;;;;;;;6.28;1.70;;;5.80;54.10;;;;;;4992766;28;20065;-71
2022/02/28 06:42:57;;;;;;;5.53;1.88;;;5.70;55.60;;;;;;5007409;28;20138;-71
2022/02/28 06:45:25;;;;;;;10.10;2.25;;;5.80;55.90;;;;;;5001259;28;20700;-71
2022/02/28 06:47:52;;;;;;;6.32;2.58;;;5.80;56.30;;;;;;5007689;28;20111;-71
2022/02/28 06:50:21;;;;;;;6.32;2.03;;;6.10;56.60;;;;;;5009841;28;20058;-71
2022/02/28 06:52:48;;;;;;;5.85;1.58;;;6.10;56.10;;;;;;5008948;28;20046;-71
2022/02/28 06:55:15;;;;;;;8.93;2.88;;;5.90;56.70;;;;;;5008624;28;20057;-71
2022/02/28 06:57:41;;;;;;;12.35;2.90;;;5.90;56.80;;;;;;4992073;28;20535;-71
2022/02/28 07:00:09;;;;;;;7.18;2.38;;;6.00;57.20;;;;;;4995039;28;20111;-71
2022/02/28 07:02:54;;;;;;;6.57;1.83;;;6.00;56.80;;;;;;4993100;28;20545;-71
2022/02/28 07:05:21;;;;;;;4.07;1.52;;;6.10;56.10;;;;;;5000350;28;20042;-71
2022/02/28 07:07:48;;;;;;;3.92;1.80;;;6.20;56.00;;;;;;4993698;28;20100;-71
2022/02/28 07:10:15;;;;;;;5.55;1.70;;;6.10;55.80;;;;;;4993003;28;20053;-71
2022/02/28 07:12:42;;;;;;;3.95;1.45;;;6.30;55.40;;;;;;4995077;28;20414;-71
2022/02/28 07:15:10;;;;;;;6.75;1.95;;;6.40;55.20;;;;;;4992520;28;20481;-71
2022/02/28 07:17:37;;;;;;;3.20;1.50;;;6.30;55.10;;;;;;4994494;28;20049;-71
2022/02/28 07:20:07;;;;;;;4.90;1.42;;;6.30;54.80;;;;;;4995321;28;20640;-71
2022/02/28 07:22:34;;;;;;;4.07;1.25;;;6.40;54.30;;;;;;4993166;28;20138;-71
2022/02/28 07:25:02;;;;;;;4.53;1.17;;;6.20;54.40;;;;;;4992421;28;20062;-71
2022/02/28 07:27:29;;;;;;;5.20;1.38;;;6.20;54.40;;;;;;4993677;28;20397;-71
2022/02/28 07:29:56;;;;;;;2.10;0.77;;;6.10;54.30;;;;;;4992391;28;20822;-71
2022/02/28 07:32:23;;;;;;;2.47;0.90;;;6.20;54.10;;;;;;4990298;28;20144;-71
2022/02/28 07:34:50;;;;;;;4.85;1.58;;;6.10;54.30;;;;;;4994036;28;20048;-72
2022/02/28 07:37:17;;;;;;;2.75;0.88;;;6.10;54.10;;;;;;4993040;28;20077;-71
2022/02/28 07:39:44;;;;;;;3.72;1.02;;;6.20;53.60;;;;;;4992779;28;20354;-71
2022/02/28 07:42:19;;;;;;;3.05;1.27;;;6.20;53.00;;;;;;4994455;28;20053;-71
2022/02/28 07:44:46;;;;;;;3.35;0.60;;;6.30;52.50;;;;;;4996213;28;20053;-71
2022/02/28 07:47:13;;;;;;;3.47;1.25;;;6.20;52.50;;;;;;4993727;28;20383;-71
2022/02/28 07:49:42;;;;;;;3.38;0.80;;;6.30;52.60;;;;;;4993496;28;20145;-71
2022/02/28 07:52:09;;;;;;;3.38;0.60;;;6.40;52.10;;;;;;4992824;28;20042;-71
2022/02/28 07:54:36;;;;;;;3.50;1.27;;;6.40;51.40;;;;;;4991631;28;20049;-71
2022/02/28 07:57:04;;;;;;;3.13;0.70;;;6.20;51.80;;;;;;4996024;28;20068;-72
2022/02/28 07:59:30;;;;;;;6.20;1.17;;;6.30;51.90;;;;;;4995910;28;20073;-71
2022/02/28 08:01:59;;;;;;;2.85;1.00;;;6.40;52.10;;;;;;4988318;28;20057;-71
2022/02/28 08:04:26;;;;;;;4.97;0.70;;;6.50;51.30;;;;;;4992999;28;20044;-71
2022/02/28 08:06:53;;;;;;;3.03;0.68;;;6.50;51.30;;;;;;4994610;28;20143;-71
2022/02/28 08:09:21;;;;;;;2.65;0.50;;;6.30;50.90;;;;;;4993262;28;20046;-71
2022/02/28 08:11:49;;;;;;;2.88;0.82;;;6.30;51.10;;;;;;4993161;28;20144;-71
2022/02/28 08:14:16;;;;;;;3.60;0.75;;;6.30;51.20;;;;;;4989988;28;20045;-71
2022/02/28 08:16:43;;;;;;;2.00;0.43;;;6.40;51.30;;;;;;4992645;28;20050;-71
2022/02/28 08:19:10;;;;;;;2.08;0.30;;;6.40;51.30;;;;;;4994044;28;20131;-71
2022/02/28 08:21:37;;;;;;;3.45;0.68;;;6.60;51.00;;;;;;4976211;28;20054;-71
2022/02/28 08:24:05;;;;;;;3.08;0.70;;;6.70;50.70;;;;;;4992985;28;20038;-71
2022/02/28 08:26:32;;;;;;;4.45;0.60;;;6.80;50.50;;;;;;4994767;28;20046;-71
2022/02/28 08:28:59;;;;;;;6.28;1.00;;;6.80;50.30;;;;;;5008958;28;20049;-71
2022/02/28 08:31:26;;;;;;;3.95;0.95;;;6.80;50.70;;;;;;5008705;28;20073;-71
2022/02/28 08:33:54;;;;;;;3.30;0.70;;;6.70;51.00;;;;;;4993200;28;20042;-71
2022/02/28 08:36:21;;;;;;;2.83;1.10;;;6.90;50.80;;;;;;4996013;28;20452;-71
2022/02/28 08:38:50;;;;;;;3.35;0.85;;;6.80;50.60;;;;;;4991578;28;21047;-71
2022/02/28 08:41:17;;;;;;;3.22;0.40;;;6.90;50.90;;;;;;4990332;28;20719;-71
2022/02/28 08:43:44;;;;;;;1.67;0.60;;;6.70;52.00;;;;;;4992111;28;20791;-71
2022/02/28 08:46:11;;;;;;;1.98;0.60;;;6.80;52.30;;;;;;4993641;28;20042;-71
2022/02/28 08:48:42;;;;;;;3.67;0.75;;;6.80;52.40;;;;;;4992900;28;20124;-71
2022/02/28 08:51:09;;;;;;;4.05;0.75;;;6.80;52.50;;;;;;4976859;28;20049;-71
2022/02/28 08:53:36;;;;;;;4.05;0.95;;;7.00;52.40;;;;;;4993467;28;20044;-71
2022/02/28 08:56:03;;;;;;;3.30;1.15;;;7.00;52.40;;;;;;4993448;28;20085;-71
2022/02/28 08:58:31;;;;;;;4.40;0.50;;;6.90;52.70;;;;;;5007055;28;20041;-71
2022/02/28 09:00:58;;;;;;;3.17;0.60;;;6.70;53.40;;;;;;4993206;28;21061;-71
2022/02/28 09:03:25;;;;;;;1.90;0.40;;;6.70;53.60;;;;;;4972781;28;20046;-71
2022/02/28 09:05:52;;;;;;;2.30;0.60;;;6.40;54.40;;;;;;4992208;28;20049;-71
2022/02/28 09:08:19;;;;;;;2.05;0.60;;;6.50;54.60;;;;;;5008081;28;20073;-71
2022/02/28 09:10:46;;;;;;;4.03;0.73;;;6.40;55.20;;;;;;4975791;28;20050;-71
2022/02/28 09:13:13;;;;;;;3.00;0.77;;;6.50;55.20;;;;;;4992777;28;20092;-71
2022/02/28 09:15:40;;;;;;;4.30;0.88;;;6.50;55.40;;;;;;4989145;28;20046;-71
2022/02/28 09:18:07;;;;;;;4.32;0.80;;;6.50;56.10;;;;;;5008891;28;20729;-71
2022/02/28 09:20:36;;;;;;;3.92;0.80;;;6.30;56.70;;;;;;4991357;28;20041;-71
2022/02/28 09:23:04;;;;;;;3.72;0.88;;;6.50;56.80;;;;;;4991062;28;20123;-71
2022/02/28 09:25:31;;;;;;;2.22;0.57;;;6.50;56.80;;;;;;4988382;28;20057;-71
2022/02/28 09:27:58;;;;;;;1.75;0.75;;;6.50;57.00;;;;;;4987900;28;21075;-71
2022/02/28 09:30:26;;;;;;;2.35;0.80;;;6.40;57.50;;;;;;5007925;28;20100;-71
2022/02/28 09:32:56;;;;;;;1.42;0.52;;;6.30;58.10;;;;;;4991621;28;20049;-71
2022/02/28 09:35:27;;;;;;;4.47;0.85;;;6.30;58.30;;;;;;5007748;28;20342;-72
2022/02/28 09:37:58;;;;;;;2.45;0.80;;;6.40;58.20;;;;;;4988610;28;20046;-71
2022/02/28 09:40:30;;;;;;;3.17;0.60;;;6.50;58.20;;;;;;4987553;28;20069;-71
2022/02/28 09:43:26;;;;;;;2.45;0.98;;;6.60;58.40;;;;;;4911592;28;20142;-71
2022/02/28 09:46:13;;;;;;;2.08;0.80;;;6.70;58.60;;;;;;4992956;28;20892;-71
2022/02/28 09:49:18;;;;;;;5.85;1.00;;;6.70;59.00;;;;;;4990203;28;20088;-72
2022/02/28 09:52:05;;;;;;;3.67;0.82;;;6.90;58.50;;;;;;4992265;28;20129;-72
2022/02/28 09:55:09;;;;;;;4.28;0.30;;;7.10;57.80;;;;;;4932005;28;20058;-71
2022/02/28 09:58:06;;;;;;;2.10;0.80;;;7.10;58.10;;;;;;4976229;28;20144;-71
2022/02/28 10:00:51;;;;;;;2.78;0.45;;;7.00;58.50;;;;;;5005487;28;20052;-71
2022/02/28 10:03:20;;;;;;;3.13;0.90;;;6.80;58.80;;;;;;4988770;28;20677;-71
2022/02/28 10:05:48;;;;;;;1.73;0.70;;;6.80;59.30;;;;;;4987700;28;20042;-71
2022/02/28 10:08:15;;;;;;;3.97;0.80;;;6.70;60.70;;;;;;4990308;28;20510;-71
2022/02/28 10:10:47;;;;;;;2.83;0.70;;;6.70;62.20;;;;;;4992488;28;20050;-71
2022/02/28 10:13:14;;;;;;;4.00;1.02;;;6.60;63.50;;;;;;4987884;28;20462;-71
2022/02/28 10:15:48;;;;;;;2.50;0.70;;;6.60;63.60;;;;;;4991414;28;20152;-71
2022/02/28 10:18:15;;;;;;;3.17;0.90;;;6.90;64.50;;;;;;4989302;28;20050;-72
2022/02/28 10:20:43;;;;;;;2.72;0.60;;;7.20;64.30;;;;;;4993128;28;20045;-72
2022/02/28 10:23:16;;;;;;;3.17;1.23;;;7.40;63.50;;;;;;4990670;28;20140;-71
2022/02/28 10:26:06;;;;;;;2.33;0.70;;;7.70;63.10;;;;;;4988743;28;20058;-71
2022/02/28 10:29:09;;;;;;;2.72;0.80;;;7.70;62.70;;;;;;4988174;28;20047;-72
2022/02/28 10:31:41;;;;;;;3.05;1.30;;;7.60;62.40;;;;;;4991456;28;20053;-72
2022/02/28 10:35:59;;;;;;;3.17;1.35;;;7.50;62.90;;;;;;4990725;28;20096;-71
2022/02/28 10:38:03;;;;;;;9.10;2.47;;;7.60;63.70;;;;;;4990945;28;20564;-71
2022/02/28 10:40:32;;;;;;;4.47;0.80;;;7.40;62.70;;;;;;4974033;28;20062;-71
2022/02/28 10:43:00;;;;;;;2.50;1.02;;;7.40;63.10;;;;;;5005643;28;20048;-71
2022/02/28 10:45:27;;;;;;;3.28;1.05;;;7.30;63.90;;;;;;4989539;28;20073;-71
2022/02/28 10:47:55;;;;;;;3.28;0.93;;;7.40;63.80;;;;;;4992725;28;20053;-71
2022/02/28 10:50:40;;;;;;;2.17;0.70;;;7.40;63.30;;;;;;4993160;28;20802;-72
2022/02/28 10:53:12;;;;;;;2.97;1.05;;;7.40;62.90;;;;;;4991083;28;20504;-72
2022/02/28 10:55:39;;;;;;;1.65;0.60;;;7.40;63.40;;;;;;4992122;28;20072;-72
2022/02/28 10:58:09;;;;;;;4.45;0.70;;;7.60;62.90;;;;;;4988902;28;20076;-71
2022/02/28 11:00:51;;;;;;;2.47;0.85;;;7.30;63.30;;;;;;4991258;28;20042;-72
2022/02/28 11:03:18;;;;;;;2.20;0.90;;;7.20;64.10;;;;;;4988318;28;20052;-72
2022/02/28 11:05:57;;;;;;;2.72;1.02;;;7.10;64.50;;;;;;4991434;28;20060;-71
2022/02/28 11:08:26;;;;;;;2.20;1.15;;;6.90;66.90;;;;;;4988566;28;20049;-71
2022/02/28 11:11:06;;;;;;;2.20;1.00;;;6.70;70.90;;;;;;4997096;28;21013;-72
2022/02/28 11:13:34;;;;;;;4.30;1.20;;;6.40;74.00;;;;;;4994241;28;20038;-71
2022/02/28 11:16:01;;;;;;;5.20;1.73;;;6.20;77.20;;;;;;4989994;28;20046;-71
2022/02/28 11:18:29;;;;;;;4.20;1.45;;;5.80;79.70;;;;;;4993251;28;20046;-71
2022/02/28 11:20:56;;;;;;;3.15;0.95;;;5.50;82.50;;;;;;4994788;28;20045;-71
2022/02/28 11:23:24;;;;;;;2.72;1.42;;;5.40;84.50;;;;;;4994097;28;20121;-71
2022/02/28 11:25:51;;;;;;;4.22;1.38;;;5.40;84.80;;;;;;4992727;28;20042;-71
2022/02/28 11:28:19;;;;;;;5.38;1.92;;;5.60;84.70;;;;;;4992729;28;20096;-71
2022/02/28 11:30:47;;;;;;;7.20;2.88;;;5.50;84.50;;;;;;4993711;28;20567;-71
2022/02/28 11:33:16;;;;;;;4.28;1.67;;;5.10;86.60;;;;;;4993738;28;20045;-71
2022/02/28 11:35:51;;;;;;;6.28;2.30;;;5.10;87.60;;;;;;5007959;28;20033;-71
2022/02/28 11:38:18;;;;;;;5.43;2.65;;;5.30;87.30;;;;;;5008148;28;20052;-71
2022/02/28 11:40:55;;;;;;;7.68;2.85;;;5.30;87.70;;;;;;4991646;28;20076;-71
2022/02/28 11:43:24;;;;;;;4.82;2.83;;;5.10;88.80;;;;;;4990171;28;20049;-71
2022/02/28 11:46:04;;;;;;;9.07;3.00;;;5.00;90.20;;;;;;4992387;28;20504;-71
2022/02/28 11:48:38;;;;;;;5.57;2.38;;;5.10;90.30;;;;;;4993644;28;20129;-71
2022/02/28 11:51:24;;;;;;;7.93;3.35;;;5.10;90.30;;;;;;4994153;28;20054;-71
2022/02/28 11:54:00;;;;;;;4.90;2.20;;;5.10;90.50;;;;;;4992486;28;20042;-71
2022/02/28 11:56:30;;;;;;;5.28;2.58;;;5.10;90.60;;;;;;4991256;28;20042;-71
2022/02/28 11:59:15;;;;;;;8.20;2.80;;;5.10;91.00;;;;;;4992280;28;20057;-71
2022/02/28 12:02:06;;;;;;;5.82;2.45;;;5.00;91.00;;;;;;4992122;28;20033;-71
2022/02/28 12:04:43;;;;;;;8.65;2.60;;;4.90;91.20;;;;;;5006078;28;20089;-71
2022/02/28 12:07:22;;;;;;;6.30;2.33;;;5.00;91.90;;;;;;4993339;28;20561;-71
2022/02/28 12:09:50;;;;;;;6.68;2.20;;;5.10;91.60;;;;;;4994530;28;20061;-71
2022/02/28 12:12:20;;;;;;;5.78;2.72;;;5.10;91.70;;;;;;4989068;28;20129;-71
2022/02/28 12:14:56;;;;;;;5.57;2.33;;;5.30;91.70;;;;;;5010982;28;20045;-71
2022/02/28 12:17:31;;;;;;;8.43;2.50;;;5.50;91.40;;;;;;4976015;28;20052;-71
2022/02/28 12:20:18;;;;;;;5.07;2.25;;;5.50;90.60;;;;;;4992347;28;20081;-71
2022/02/28 12:23:05;;;;;;;6.35;2.35;;;5.60;90.70;;;;;;5008676;28;20684;-71
2022/02/28 12:25:34;;;;;;;5.10;2.00;;;5.30;91.10;;;;;;4993646;28;20313;-71
2022/02/28 12:28:36;;;;;;;3.90;2.13;;;5.20;91.70;;;;;;4990463;28;20053;-71
2022/02/28 12:31:07;;;;;;;4.70;2.00;;;5.50;91.00;;;;;;5009635;28;20150;-71
2022/02/28 12:33:35;;;;;;;4.70;2.22;;;5.70;90.90;;;;;;4993792;28;20046;-71
2022/02/28 12:36:23;;;;;;;5.28;1.80;;;5.70;90.50;;;;;;4995250;28;20053;-71
2022/02/28 12:38:55;;;;;;;6.40;1.67;;;5.60;90.40;;;;;;4993680;28;20054;-71
2022/02/28 12:41:23;;;;;;;7.00;1.83;;;5.70;90.50;;;;;;4992387;28;20037;-71
2022/02/28 12:43:52;;;;;;;3.90;1.95;;;5.60;90.40;;;;;;4991583;28;20077;-71
2022/02/28 12:46:30;;;;;;;6.30;2.45;;;5.50;90.90;;;;;;4991965;28;20050;-72
2022/02/28 12:49:02;;;;;;;8.10;2.40;;;5.70;91.00;;;;;;4977998;28;20057;-72
2022/02/28 12:51:32;;;;;;;4.78;2.20;;;5.60;90.90;;;;;;4990351;28;20088;-72
2022/02/28 12:54:05;;;;;;;5.90;1.65;;;5.50;91.40;;;;;;4993185;28;20043;-71
2022/02/28 12:56:37;;;;;;;;;;;5.50;91.40;;;;;;4995176;28;20046;-72
2022/02/28 12:59:04;;;;;;;7.65;2.47;;;5.50;91.70;;;;;;4994281;28;21194;-72
2022/02/28 13:01:32;;;;;;;8.50;2.38;;;5.50;91.60;;;;;;4991645;28;20037;-71
2022/02/28 13:04:03;;;;;;;5.03;2.33;;;5.70;91.30;;;;;;4993567;28;20042;-71
2022/02/28 13:06:39;;;;;;;4.32;2.45;;;5.70;90.90;;;;;;4992456;28;20045;-71
2022/02/28 13:09:12;;;;;;;4.85;2.50;;;5.70;91.20;;;;;;4991695;28;20054;-71
2022/02/28 13:11:49;;;;;;;4.80;2.72;;;5.60;91.80;;;;;;4989689;28;20729;-72